Time;durP1;ratioP1;P1;durP2;ratioP2;P2;SDS_P1;SDS_P2;PMS_P1;PMS_P2;Temp;Humidity;BMP_temperature;BMP_pressure;BME280_temperature;BME280_humidity;BME280_pressure;Samples;Min_cycle;Max_cycle;Signal;HPM_P1;HPM_P2
2022/12/15 00:40:35;;;;;;;;;46.00;32.25;;;;;3.90;89.82;100346.91;5081881;27;45295;-82
2022/12/15 00:43:00;;;;;;;;;41.00;32.00;;;;;3.88;89.93;100341.63;5095424;27;46636;-84
2022/12/15 00:46:53;;;;;;;;;49.00;34.50;;;;;3.86;89.97;100338.09;5061622;27;45405;-83
2022/12/15 00:48:11;;;;;;;;;44.50;30.50;;;;;3.86;90.13;100347.66;5096424;27;45433;-85
2022/12/15 00:50:51;;;;;;;;;51.00;38.50;;;;;3.87;90.37;100352.03;5061421;27;49404;-84
2022/12/15 01:20:36;;;;;;;;;49.00;32.75;;;;;3.60;91.37;100333.78;5079171;27;45582;-83
2022/12/15 01:23:02;;;;;;;;;43.50;27.75;;;;;3.59;91.34;100348.56;5061105;27;45487;-86
2022/12/15 01:25:27;;;;;;;;;47.25;38.00;;;;;3.57;91.74;100349.34;5078402;27;45665;-83
2022/12/15 01:27:53;;;;;;;;;39.25;26.50;;;;;3.48;91.56;100342.13;5069859;27;45310;-83
2022/12/15 01:30:22;;;;;;;;;40.00;30.00;;;;;3.49;91.96;100337.81;5074993;27;45423;-84
2022/12/15 01:32:47;;;;;;;;;39.50;29.75;;;;;3.47;91.91;100353.41;5077077;27;45485;-82
2022/12/15 01:35:13;;;;;;;;;36.75;28.00;;;;;3.44;92.25;100353.31;5080748;27;45942;-87
2022/12/15 01:37:38;;;;;;;;;46.00;34.75;;;;;3.40;91.85;100356.66;5080871;27;45402;-85
2022/12/15 01:42:50;;;;;;;;;33.75;25.50;;;;;3.33;92.37;100362.53;5082675;27;45241;-85
2022/12/15 01:45:27;;;;;;;;;37.25;33.00;;;;;3.32;92.11;100372.06;5073838;27;48592;-81
2022/12/15 01:47:57;;;;;;;;;34.50;31.50;;;;;3.32;92.21;100376.41;5077805;27;46128;-83
2022/12/15 01:50:23;;;;;;;;;42.00;28.00;;;;;3.31;92.65;100369.41;5080679;27;45496;-85
2022/12/15 01:52:49;;;;;;;;;36.50;32.50;;;;;3.31;92.61;100356.38;5079714;27;45698;-82
2022/12/15 01:55:16;;;;;;;;;32.75;28.75;;;;;3.29;92.84;100366.75;5075334;27;56014;-84
2022/12/15 01:57:42;;;;;;;;;43.75;37.25;;;;;3.29;92.21;100373.69;5062951;27;46096;-86
2022/12/15 02:00:08;;;;;;;;;44.25;32.25;;;;;3.29;92.44;100376.28;5080190;27;47628;-83
2022/12/15 02:02:35;;;;;;;;;33.75;31.00;;;;;3.27;92.56;100370.16;5079690;27;45537;-85
2022/12/15 02:05:03;;;;;;;;;40.25;31.25;;;;;3.26;92.81;100371.00;5062389;27;47443;-83
2022/12/15 02:07:29;;;;;;;;;44.25;36.00;;;;;3.24;92.93;100376.13;5098021;27;45517;-82
2022/12/15 02:09:58;;;;;;;;;35.25;31.50;;;;;3.22;92.86;100384.75;5064606;27;55632;-84
2022/12/15 02:12:26;;;;;;;;;33.75;28.50;;;;;3.24;92.85;100377.88;5082071;27;45572;-86
2022/12/15 02:15:04;;;;;;;;;42.75;33.00;;;;;3.23;93.09;100381.31;5098106;27;46470;-86
2022/12/15 02:18:00;;;;;;;;;36.00;28.25;;;;;3.21;93.01;100359.53;5077072;27;46195;-83
2022/12/15 02:20:50;;;;;;;;;45.75;33.75;;;;;3.16;93.26;100356.75;5079094;27;45529;-82
2022/12/15 02:23:27;;;;;;;;;42.25;34.75;;;;;3.18;92.99;100365.50;5093092;27;45371;-82
2022/12/15 02:26:22;;;;;;;;;37.25;32.50;;;;;3.17;93.28;100368.06;5078999;27;48577;-82
2022/12/15 02:29:25;;;;;;;;;38.25;28.25;;;;;3.14;93.44;100368.84;5061322;27;46816;-83
2022/12/15 02:32:07;;;;;;;;;34.50;32.00;;;;;3.11;93.45;100363.53;5075952;27;46412;-82
2022/12/15 02:34:48;;;;;;;;;38.75;32.75;;;;;3.10;93.43;100367.00;5095141;27;45643;-82
2022/12/15 02:37:18;;;;;;;;;43.50;32.50;;;;;3.11;93.40;100363.53;5079438;27;45792;-86
2022/12/15 02:39:43;;;;;;;;;48.00;34.50;;;;;3.09;93.85;100360.88;5078643;27;45270;-84
2022/12/15 02:42:12;;;;;;;;;35.00;23.75;;;;;3.07;93.80;100361.66;5078674;27;45488;-82
2022/12/15 02:44:45;;;;;;;;;48.50;33.75;;;;;3.07;93.79;100375.59;5061487;27;45477;-83
2022/12/15 02:47:13;;;;;;;;;38.75;30.50;;;;;3.04;94.03;100391.16;5062159;27;48586;-83
2022/12/15 02:49:47;;;;;;;;;43.75;31.25;;;;;3.00;94.06;100388.38;5078928;27;46344;-82
2022/12/15 02:52:25;;;;;;;;;36.25;27.00;;;;;3.00;93.89;100393.59;5096820;27;45959;-82
2022/12/15 02:55:00;;;;;;;;;44.25;34.25;;;;;2.98;94.02;100377.88;5079872;27;45221;-84
2022/12/15 02:57:25;;;;;;;;;44.75;30.25;;;;;2.96;94.11;100360.41;5098780;27;46550;-82
2022/12/15 03:00:00;;;;;;;;;54.00;33.50;;;;;2.94;93.96;100362.09;5097816;27;45218;-82
2022/12/15 03:02:29;;;;;;;;;46.00;31.50;;;;;2.93;94.40;100369.03;5079158;27;45522;-82
2022/12/15 03:04:55;;;;;;;;;59.00;37.75;;;;;2.92;94.11;100372.44;5077976;27;45264;-82
2022/12/15 03:07:23;;;;;;;;;34.00;29.25;;;;;2.89;94.33;100362.81;5076697;27;46396;-82
2022/12/15 03:09:49;;;;;;;;;43.50;34.75;;;;;2.88;94.55;100373.22;5078894;27;45338;-83
2022/12/15 03:12:14;;;;;;;;;54.25;36.50;;;;;2.87;94.78;100369.69;5097132;27;54009;-85
2022/12/15 03:14:39;;;;;;;;;33.75;27.00;;;;;2.86;94.58;100373.13;5078228;27;52182;-84
2022/12/15 03:17:06;;;;;;;;;46.50;34.50;;;;;2.80;94.60;100370.31;5078124;27;61842;-84
2022/12/15 03:19:32;;;;;;;;;39.25;32.00;;;;;2.80;95.04;100364.22;5079459;27;45374;-82
2022/12/15 03:21:57;;;;;;;;;38.00;30.75;;;;;2.81;94.41;100371.19;5078798;27;45386;-82
2022/12/15 03:24:22;;;;;;;;;42.00;34.75;;;;;2.77;94.78;100369.31;5061331;27;45458;-82
2022/12/15 03:26:48;;;;;;;;;44.25;38.50;;;;;2.78;94.75;100379.81;5096031;27;47120;-83
2022/12/15 03:29:16;;;;;;;;;42.75;37.00;;;;;2.77;94.54;100379.75;5094985;27;45410;-82
2022/12/15 03:31:41;;;;;;;;;56.00;32.50;;;;;2.75;94.37;100381.41;5058527;27;45530;-82
2022/12/15 03:34:06;;;;;;;;;40.25;32.50;;;;;2.73;95.08;100375.28;5065977;27;45571;-82
2022/12/15 03:36:32;;;;;;;;;27.50;26.75;;;;;2.73;95.59;100380.50;5061333;27;48200;-82
2022/12/15 03:38:58;;;;;;;;;41.00;35.00;;;;;2.71;95.46;100370.00;5095444;27;46251;-81
2022/12/15 03:41:23;;;;;;;;;47.00;34.75;;;;;2.71;95.38;100361.28;5079295;27;45461;-85
2022/12/15 03:43:48;;;;;;;;;56.75;40.50;;;;;2.68;95.53;100359.47;5078790;27;49480;-82
2022/12/15 03:46:14;;;;;;;;;46.00;32.50;;;;;2.67;95.51;100357.72;5059608;27;47195;-84
2022/12/15 03:48:39;;;;;;;;;44.75;32.00;;;;;2.63;95.24;100345.38;5096809;27;54126;-83
2022/12/15 03:51:05;;;;;;;;;43.50;36.50;;;;;2.68;95.54;100353.38;5060446;27;45963;-85
2022/12/15 03:53:30;;;;;;;;;34.75;34.25;;;;;2.67;95.60;100362.91;5079003;27;45537;-85
2022/12/15 03:55:55;;;;;;;;;38.75;32.75;;;;;2.67;95.76;100370.75;5094134;27;57137;-82
2022/12/15 03:58:21;;;;;;;;;42.00;29.75;;;;;2.67;95.54;100375.94;5060391;27;46842;-81
2022/12/15 04:00:46;;;;;;;;;49.00;35.50;;;;;2.68;95.98;100377.72;5078018;27;45382;-82
2022/12/15 04:03:12;;;;;;;;;44.00;36.75;;;;;2.70;96.16;100365.63;5060388;27;56218;-81
2022/12/15 04:05:38;;;;;;;;;45.50;32.25;;;;;2.74;96.07;100383.13;5092865;27;45419;-83
2022/12/15 04:08:03;;;;;;;;;51.25;36.75;;;;;2.80;96.38;100385.97;5078168;27;45493;-82
2022/12/15 04:10:31;;;;;;;;;41.25;36.50;;;;;2.78;96.01;100366.78;5077177;27;45593;-83
2022/12/15 04:13:04;;;;;;;;;36.00;29.75;;;;;2.86;96.29;100375.72;5060102;27;45580;-82
2022/12/15 04:15:30;;;;;;;;;48.25;32.75;;;;;2.89;95.91;100380.19;5078117;27;46455;-83
2022/12/15 04:17:55;;;;;;;;;44.25;33.75;;;;;2.93;95.94;100379.47;5056865;27;45942;-80
2022/12/15 04:20:21;;;;;;;;;41.25;32.00;;;;;2.95;96.03;100367.34;5077746;27;45569;-85
2022/12/15 04:22:48;;;;;;;;;44.75;33.50;;;;;2.94;95.91;100362.97;5061441;27;45375;-82
2022/12/15 05:33:56;;;;;;;;;41.75;36.00;;;;;3.01;95.38;100370.16;5092184;27;45399;-82
2022/12/15 05:36:22;;;;;;;;;38.75;31.75;;;;;3.02;95.49;100371.03;5093585;27;45501;-82
2022/12/15 05:38:48;;;;;;;;;42.00;28.75;;;;;3.01;95.38;100370.16;5060275;28;45501;-82
2022/12/15 05:41:14;;;;;;;;;55.00;39.75;;;;;3.01;95.66;100374.50;5076605;28;48497;-80
2022/12/15 05:43:39;;;;;;;;;48.75;32.00;;;;;3.00;95.59;100365.78;5076733;28;45825;-82
2022/12/15 05:46:05;;;;;;;;;41.25;32.25;;;;;2.99;95.61;100356.19;5058655;28;53983;-84
2022/12/15 05:48:30;;;;;;;;;44.75;36.25;;;;;2.94;95.63;100365.59;5076747;28;45478;-85
2022/12/15 05:50:55;;;;;;;;;33.50;31.25;;;;;2.95;95.30;100369.97;5076074;27;47565;-84
2022/12/15 05:53:21;;;;;;;;;58.50;36.00;;;;;2.93;95.61;100374.25;5059710;28;46402;-83
2022/12/15 05:55:46;;;;;;;;;43.50;33.00;;;;;2.90;95.55;100384.56;5042299;28;49638;-85
2022/12/15 05:58:11;;;;;;;;;42.25;33.75;;;;;2.86;95.78;100380.06;5077614;28;50592;-83
2022/12/15 06:00:37;;;;;;;;;35.00;30.75;;;;;2.81;95.58;100379.91;5093495;27;46381;-85
2022/12/15 06:03:02;;;;;;;;;42.00;35.50;;;;;2.81;95.58;100384.22;5060553;28;45486;-84
2022/12/15 06:05:28;;;;;;;;;44.75;33.75;;;;;2.80;95.94;100374.66;5063701;28;45361;-83
2022/12/15 06:07:53;;;;;;;;;53.00;35.25;;;;;2.79;95.61;100376.38;5042926;28;45411;-81
2022/12/15 06:10:19;;;;;;;;;36.00;26.50;;;;;2.78;95.69;100369.38;5059329;28;47759;-82
2022/12/15 06:12:44;;;;;;;;;37.50;32.25;;;;;2.79;95.88;100376.38;5076627;28;45380;-86
2022/12/15 06:15:09;;;;;;;;;29.50;22.00;;;;;2.78;95.99;100382.44;5059535;28;47917;-84
2022/12/15 06:17:35;;;;;;;;;34.25;26.75;;;;;2.76;96.19;100391.00;5075618;28;47562;-84
2022/12/15 06:20:00;;;;;;;;;46.75;33.50;;;;;2.76;95.51;100393.63;5057815;28;45420;-78
2022/12/15 06:22:27;;;;;;;;;44.50;35.25;;;;;2.71;95.90;100380.41;5071515;28;45546;-82
2022/12/15 06:24:52;;;;;;;;;39.75;32.75;;;;;2.70;95.88;100393.41;5074240;28;45296;-78
2022/12/15 06:27:18;;;;;;;;;34.75;27.25;;;;;2.69;95.62;100394.25;5073939;28;46029;-79
2022/12/15 06:29:44;;;;;;;;;39.50;35.00;;;;;2.66;95.93;100397.59;5057840;28;48290;-82
2022/12/15 06:32:09;;;;;;;;;48.00;41.75;;;;;2.61;95.53;100387.03;5077321;28;45402;-79
2022/12/15 06:34:35;;;;;;;;;41.50;34.00;;;;;2.63;95.83;100392.31;5058883;28;45532;-80
2022/12/15 06:37:01;;;;;;;;;39.00;32.75;;;;;2.58;95.97;100392.13;5074279;28;45537;-78
2022/12/15 06:39:26;;;;;;;;;42.25;29.00;;;;;2.58;95.94;100405.16;5076747;28;46238;-82
2022/12/15 06:41:52;;;;;;;;;49.75;35.75;;;;;2.57;95.71;100413.81;5091580;27;55954;-79
2022/12/15 06:44:17;;;;;;;;;44.75;33.00;;;;;2.52;96.13;100396.25;5058271;28;45745;-80
2022/12/15 06:46:44;;;;;;;;;37.75;32.25;;;;;2.53;96.51;100408.44;5058529;28;45489;-82
2022/12/15 06:49:10;;;;;;;;;43.25;30.25;;;;;2.55;96.30;100412.88;5068798;28;47338;-80
2022/12/15 06:51:35;;;;;;;;;42.50;31.50;;;;;2.55;96.25;100423.28;5077070;28;45414;-82
2022/12/15 06:54:01;;;;;;;;;34.50;23.25;;;;;2.54;96.48;100426.72;5058715;28;45310;-83
2022/12/15 06:56:34;;;;;;;;;39.25;31.50;;;;;2.55;96.23;100431.09;5057946;28;45473;-79
2022/12/15 06:59:02;;;;;;;;;45.75;34.00;;;;;2.54;96.48;100421.53;5041744;28;48390;-79
2022/12/15 07:01:28;;;;;;;;;36.75;32.50;;;;;2.53;96.61;100413.66;5075145;27;45632;-83
2022/12/15 07:03:54;;;;;;;;;50.25;38.25;;;;;2.48;96.48;100413.47;5058413;28;45445;-81
2022/12/15 07:06:19;;;;;;;;;33.75;28.50;;;;;2.50;96.19;100426.56;5058032;28;45604;-81
2022/12/15 07:08:51;;;;;;;;;47.00;32.25;;;;;2.47;96.23;100414.31;5075020;28;48684;-81
2022/12/15 07:11:17;;;;;;;;;44.00;35.50;;;;;2.43;96.04;100412.41;5041580;28;46464;-81
2022/12/15 07:13:42;;;;;;;;;42.75;33.75;;;;;2.45;95.93;100416.00;5041341;28;45540;-80
2022/12/15 07:16:09;;;;;;;;;41.00;34.00;;;;;2.44;96.34;100418.53;5056520;28;45415;-82
2022/12/15 07:18:34;;;;;;;;;40.00;30.50;;;;;2.42;96.17;100426.28;5041426;28;47602;-78
2022/12/15 07:21:05;;;;;;;;;46.00;35.50;;;;;2.41;95.83;100429.72;5039811;28;45548;-79
2022/12/15 07:23:31;;;;;;;;;28.00;25.75;;;;;2.39;96.07;100435.69;5075841;28;45450;-78
2022/12/15 07:25:56;;;;;;;;;34.50;30.50;;;;;2.38;96.07;100440.03;5073284;28;45312;-78
2022/12/15 07:28:21;;;;;;;;;48.25;33.75;;;;;2.32;96.27;100440.69;5050987;28;45506;-79
2022/12/15 07:30:47;;;;;;;;;45.75;33.75;;;;;2.34;95.67;100443.34;5074458;27;46086;-83
2022/12/15 07:33:14;;;;;;;;;36.25;31.50;;;;;2.34;95.89;100454.66;5041596;28;45455;-81
2022/12/15 07:35:40;;;;;;;;;42.50;34.25;;;;;2.31;96.27;100438.03;5056198;28;45612;-79
2022/12/15 07:38:06;;;;;;;;;48.00;37.00;;;;;2.34;96.05;100431.22;5053525;28;45668;-78
2022/12/15 07:40:32;;;;;;;;;40.25;33.75;;;;;2.35;96.40;100425.19;5051775;27;45415;-79
2022/12/15 07:42:57;;;;;;;;;51.25;40.50;;;;;2.41;96.46;100428.84;5074159;27;47232;-79
2022/12/15 07:45:22;;;;;;;;;41.75;34.25;;;;;2.46;96.61;100436.00;5059452;27;50466;-79
2022/12/15 07:47:49;;;;;;;;;41.50;30.50;;;;;2.51;97.19;100442.28;5041390;28;53326;-79
2022/12/15 07:50:15;;;;;;;;;38.50;33.25;;;;;2.54;96.65;100444.09;5074155;28;45402;-78
2022/12/15 07:52:40;;;;;;;;;40.50;32.25;;;;;2.62;96.66;100451.38;5052881;28;46482;-77
2022/12/15 07:55:06;;;;;;;;;42.50;36.00;;;;;2.65;96.52;100439.25;5069343;27;45562;-77
2022/12/15 07:57:31;;;;;;;;;50.25;37.00;;;;;2.72;97.26;100452.59;5066578;28;48378;-76
2022/12/15 07:59:58;;;;;;;;;43.75;36.00;;;;;2.77;96.74;100461.47;5032299;28;45505;-78
2022/12/15 08:02:23;;;;;;;;;42.25;35.25;;;;;2.76;96.44;100456.19;5067622;28;45473;-78
2022/12/15 08:04:49;;;;;;;;;46.75;38.50;;;;;2.83;96.48;100463.41;5045707;28;52310;-79
2022/12/15 08:07:14;;;;;;;;;43.75;34.75;;;;;2.86;96.37;100466.09;5046321;28;45514;-76
2022/12/15 08:09:39;;;;;;;;;35.25;29.50;;;;;2.85;96.73;100469.56;5048146;28;58435;-77
2022/12/15 08:12:05;;;;;;;;;57.25;39.25;;;;;2.88;96.57;100467.97;5053078;28;49810;-79
2022/12/15 08:14:31;;;;;;;;;51.00;37.00;;;;;2.95;96.47;100487.31;5053476;28;45462;-77
2022/12/15 08:16:56;;;;;;;;;39.25;29.25;;;;;2.99;96.64;100488.31;5052664;28;47375;-78
2022/12/15 08:19:21;;;;;;;;;46.75;40.00;;;;;3.03;96.76;100492.78;5066018;28;45465;-76
2022/12/15 08:21:47;;;;;;;;;45.00;33.50;;;;;3.07;96.71;100485.13;5035278;28;45567;-75
2022/12/15 08:24:13;;;;;;;;;44.50;34.00;;;;;3.10;96.25;100492.19;5052577;28;45362;-80
2022/12/15 08:26:40;;;;;;;;;43.75;35.75;;;;;3.17;96.37;100508.94;5044784;28;45732;-78
2022/12/15 08:29:09;;;;;;;;;47.25;37.25;;;;;3.22;96.30;100515.22;5050328;28;45698;-76
2022/12/15 08:31:35;;;;;;;;;58.50;42.25;;;;;3.24;95.96;100510.91;5063393;28;45528;-77
2022/12/15 08:34:01;;;;;;;;;40.25;36.00;;;;;3.26;96.21;100509.28;5034284;28;45962;-77
2022/12/15 08:36:26;;;;;;;;;41.50;36.00;;;;;3.31;95.70;100518.16;5051027;28;45675;-79
2022/12/15 08:38:52;;;;;;;;;41.50;33.75;;;;;3.34;95.89;100521.72;5033940;28;45555;-76
2022/12/15 08:41:22;;;;;;;;;37.75;33.50;;;;;3.36;95.80;100503.53;5052675;28;48602;-76
2022/12/15 08:43:48;;;;;;;;;48.00;31.50;;;;;3.39;95.39;100495.81;5038142;28;45849;-76
2022/12/15 08:46:26;;;;;;;;;45.50;36.25;;;;;3.41;95.30;100486.31;5057412;28;45822;-75
2022/12/15 08:48:52;;;;;;;;;36.25;23.25;;;;;3.48;95.23;100488.28;5056272;28;46194;-77
2022/12/15 08:51:18;;;;;;;;;43.00;36.75;;;;;3.52;94.97;100497.13;5050859;28;45452;-78
2022/12/15 08:53:43;;;;;;;;;51.75;36.75;;;;;3.51;95.06;100495.31;5050406;28;45596;-79
2022/12/15 08:56:11;;;;;;;;;37.00;29.00;;;;;3.53;94.89;100491.94;5047161;28;47702;-77
2022/12/15 08:58:37;;;;;;;;;50.75;38.50;;;;;3.54;94.87;100501.53;5064024;28;45477;-75
2022/12/15 09:01:08;;;;;;;;;47.75;40.00;;;;;3.56;94.63;100498.97;5075642;28;45493;-76
2022/12/15 09:03:34;;;;;;;;;50.50;37.50;;;;;3.56;94.49;100502.47;5059372;28;45473;-74
2022/12/15 09:06:10;;;;;;;;;46.00;36.25;;;;;3.60;94.53;100503.47;5077247;28;45650;-74
2022/12/15 09:08:36;;;;;;;;;45.50;37.75;;;;;3.59;94.84;100506.94;5086001;27;45536;-74
2022/12/15 09:11:04;;;;;;;;;42.75;37.50;;;;;3.61;94.56;100493.06;5058029;28;46602;-75
2022/12/15 09:13:29;;;;;;;;;47.00;40.25;;;;;3.67;94.75;100503.75;5058306;28;45768;-76
2022/12/15 09:16:04;;;;;;;;;48.25;38.25;;;;;3.71;94.72;100509.94;5054221;28;47599;-76
2022/12/15 09:18:30;;;;;;;;;41.25;32.50;;;;;3.72;94.31;100508.22;5068127;27;45514;-75
2022/12/15 09:21:00;;;;;;;;;42.75;34.25;;;;;3.76;94.15;100507.47;5073857;28;45469;-75
2022/12/15 09:23:25;;;;;;;;;44.50;30.50;;;;;3.76;94.31;100510.97;5078626;28;45613;-74
2022/12/15 09:25:50;;;;;;;;;47.50;32.00;;;;;3.81;93.97;100516.34;5076135;28;45904;-77
2022/12/15 09:28:16;;;;;;;;;46.25;39.50;;;;;3.83;94.24;100509.44;5038574;28;54697;-75
2022/12/15 09:30:41;;;;;;;;;53.50;39.75;;;;;3.83;93.67;100510.34;5068698;28;51639;-76
2022/12/15 09:33:06;;;;;;;;;50.25;39.00;;;;;3.88;93.93;100523.53;5060267;27;45648;-77
2022/12/15 09:35:32;;;;;;;;;45.75;40.25;;;;;3.91;93.76;100526.28;5076683;27;56788;-77
2022/12/15 09:37:57;;;;;;;;;42.50;35.50;;;;;3.92;93.71;100512.38;5068752;28;56120;-76
2022/12/15 09:40:23;;;;;;;;;39.75;39.25;;;;;3.97;93.51;100520.34;5084282;27;45474;-76
2022/12/15 09:42:54;;;;;;;;;41.50;37.00;;;;;3.98;93.61;100530.84;5065357;28;45585;-76
2022/12/15 09:45:23;;;;;;;;;59.75;39.75;;;;;3.98;93.59;100530.84;5053291;28;46886;-76
2022/12/15 09:47:52;;;;;;;;;59.25;41.75;;;;;3.98;93.35;100523.00;5047859;28;45732;-75
2022/12/15 09:50:23;;;;;;;;;38.25;34.75;;;;;3.97;93.57;100523.84;5075877;28;45455;-76
2022/12/15 09:52:51;;;;;;;;;41.00;36.25;;;;;4.02;93.88;100531.84;5058304;28;45582;-75
2022/12/15 09:55:22;;;;;;;;;40.50;27.75;;;;;4.04;93.21;100532.78;5073258;27;48466;-76
2022/12/15 09:58:18;;;;;;;;;40.75;34.75;;;;;4.10;93.35;100522.50;5054065;28;45474;-75
2022/12/15 10:00:51;;;;;;;;;49.00;38.00;;;;;4.15;93.59;100524.44;5065754;27;45482;-76
2022/12/15 10:03:43;;;;;;;;;49.50;40.25;;;;;4.20;93.25;100538.53;5087197;27;45599;-75
2022/12/15 10:06:18;;;;;;;;;53.00;37.00;;;;;4.25;93.22;100541.28;5063294;28;47299;-75
2022/12/15 10:08:49;;;;;;;;;53.00;37.75;;;;;4.33;93.01;100536.31;5055240;28;45462;-76
2022/12/15 10:11:14;;;;;;;;;55.25;35.75;;;;;4.38;92.98;100529.53;5067901;28;45365;-76
2022/12/15 10:13:44;;;;;;;;;44.25;36.25;;;;;4.41;93.08;100527.88;5064375;28;45552;-75
2022/12/15 10:16:19;;;;;;;;;45.75;38.50;;;;;4.45;92.87;100521.91;5066325;28;45677;-76
2022/12/15 10:18:51;;;;;;;;;44.75;34.50;;;;;4.52;92.60;100530.81;5063043;28;45432;-76
2022/12/15 10:21:16;;;;;;;;;45.25;33.00;;;;;4.56;92.71;100531.78;5062194;28;45509;-76
2022/12/15 10:23:42;;;;;;;;;59.50;42.00;;;;;4.59;92.47;100529.28;5065527;28;45437;-77
2022/12/15 10:26:22;;;;;;;;;61.00;37.75;;;;;4.61;92.33;100528.47;5085796;27;61955;-74
2022/12/15 10:29:05;;;;;;;;;47.75;40.00;;;;;4.66;92.37;100519.03;5049709;28;45477;-75
2022/12/15 10:31:47;;;;;;;;;41.75;37.75;;;;;4.70;92.04;100510.44;5066848;28;45463;-77
2022/12/15 10:34:24;;;;;;;;;44.25;34.00;;;;;4.75;92.13;100507.09;5079481;27;45535;-75
2022/12/15 10:36:51;;;;;;;;;44.25;38.50;;;;;4.80;91.96;100508.13;5046782;28;46638;-76
2022/12/15 10:39:16;;;;;;;;;43.00;35.00;;;;;4.84;91.91;100494.25;5063928;28;45505;-76
2022/12/15 10:41:42;;;;;;;;;35.50;29.00;;;;;4.90;91.90;100495.34;5061164;28;45639;-75
2022/12/15 10:44:23;;;;;;;;;42.25;36.50;;;;;4.96;92.02;100492.00;5045119;28;45480;-76
2022/12/15 10:46:54;;;;;;;;;50.50;39.75;;;;;5.02;91.98;100486.94;5072879;28;48713;-81
2022/12/15 10:49:22;;;;;;;;;46.75;35.50;;;;;5.11;90.77;100492.41;5056884;28;47247;-76
2022/12/15 10:51:59;;;;;;;;;43.25;34.75;;;;;5.17;91.34;100484.75;5068573;28;45523;-74
2022/12/15 10:54:30;;;;;;;;;45.00;32.25;;;;;5.23;91.54;100484.03;5087424;27;45579;-76
2022/12/15 10:56:58;;;;;;;;;36.00;27.75;;;;;5.28;91.27;100473.69;5070568;28;48392;-75
2022/12/15 10:59:32;;;;;;;;;48.00;33.50;;;;;5.32;91.06;100478.13;5058138;28;45482;-78
2022/12/15 11:02:19;;;;;;;;;44.75;37.75;;;;;5.33;90.78;100475.56;5083839;27;45484;-75
2022/12/15 11:05:01;;;;;;;;;61.75;42.00;;;;;5.37;90.55;100461.69;5075306;28;45673;-75
2022/12/15 11:07:40;;;;;;;;;45.00;35.50;;;;;5.39;90.52;100460.03;5083834;27;45793;-75
2022/12/15 11:10:27;;;;;;;;;41.00;34.00;;;;;5.39;90.50;100452.16;5057243;28;45568;-75
2022/12/15 11:12:58;;;;;;;;;52.25;42.75;;;;;5.44;90.61;100458.41;5086472;27;45555;-75
2022/12/15 11:15:23;;;;;;;;;48.50;38.50;;;;;5.49;90.26;100461.16;5075696;27;47174;-75
2022/12/15 11:17:58;;;;;;;;;49.25;38.75;;;;;5.52;90.58;100449.00;5075846;28;46425;-75
2022/12/15 11:20:30;;;;;;;;;39.00;32.50;;;;;5.56;90.29;100441.22;5075125;28;45431;-76
2022/12/15 11:23:01;;;;;;;;;43.25;36.00;;;;;5.52;90.04;100430.66;5074794;28;45437;-75
2022/12/15 11:25:38;;;;;;;;;44.00;36.75;;;;;5.53;89.65;100436.78;5053141;28;45730;-76
2022/12/15 11:28:17;;;;;;;;;51.00;36.00;;;;;5.50;89.77;100429.75;5062525;27;47675;-75
2022/12/15 11:30:48;;;;;;;;;43.00;34.75;;;;;5.46;89.74;100421.78;5056087;28;45647;-75
2022/12/15 11:33:13;;;;;;;;;72.00;54.00;;;;;5.48;89.37;100414.84;5058505;28;45497;-76
2022/12/15 11:35:45;;;;;;;;;64.50;48.00;;;;;5.49;89.34;100414.03;5068164;28;54095;-75
2022/12/15 11:38:28;;;;;;;;;53.25;41.75;;;;;5.47;88.94;100398.25;5073900;28;47199;-75
2022/12/15 11:40:57;;;;;;;;;53.25;41.50;;;;;5.44;88.88;100382.47;5070936;28;45532;-74
2022/12/15 11:43:42;;;;;;;;;41.50;34.25;;;;;5.45;88.96;100383.38;5055508;28;45514;-74
2022/12/15 11:46:07;;;;;;;;;42.25;36.50;;;;;5.40;88.24;100378.00;5089044;27;45786;-75
2022/12/15 11:48:48;;;;;;;;;46.75;36.75;;;;;5.37;88.34;100383.16;5074408;28;45568;-75
2022/12/15 11:51:22;;;;;;;;;48.50;35.75;;;;;5.37;88.50;100367.44;5072769;28;45498;-75
2022/12/15 11:54:16;;;;;;;;;37.75;30.00;;;;;5.39;88.11;100375.38;5056319;28;45307;-75
2022/12/15 11:56:47;;;;;;;;;40.25;35.00;;;;;5.43;88.45;100377.19;5088394;27;45517;-75
2022/12/15 11:59:18;;;;;;;;;42.25;30.00;;;;;5.47;87.84;100372.06;5065043;28;46404;-74
2022/12/15 12:02:02;;;;;;;;;42.25;36.00;;;;;5.49;87.46;100364.28;5072992;28;45691;-75
2022/12/15 12:04:53;;;;;;;;;28.50;23.75;;;;;5.50;87.28;100360.78;5073644;28;45489;-77
2022/12/15 12:07:31;;;;;;;;;39.75;33.50;;;;;5.49;86.72;100359.91;5042838;28;45562;-74
2022/12/15 12:10:29;;;;;;;;;38.75;31.50;;;;;5.48;86.75;100350.25;5072946;28;46898;-74
2022/12/15 12:13:08;;;;;;;;;41.50;34.75;;;;;5.43;86.39;100351.00;5072270;28;45447;-75
2022/12/15 12:15:58;;;;;;;;;35.50;31.50;;;;;5.40;86.39;100359.69;5072300;28;45611;-76
2022/12/15 12:18:32;;;;;;;;;35.25;27.75;;;;;5.34;86.39;100349.06;5073090;28;45513;-76
2022/12/15 12:21:09;;;;;;;;;39.00;26.75;;;;;5.33;86.20;100344.69;5074489;28;47261;-77
2022/12/15 12:23:54;;;;;;;;;38.00;33.75;;;;;5.30;85.98;100336.75;5050897;28;45499;-76
2022/12/15 12:26:41;;;;;;;;;37.25;29.25;;;;;5.27;85.71;100336.66;5053679;28;45272;-76
2022/12/15 12:29:22;;;;;;;;;43.25;31.75;;;;;5.24;85.60;100327.00;5069827;28;45616;-78
2022/12/15 12:31:58;;;;;;;;;35.50;30.25;;;;;5.23;85.90;100322.63;5052386;28;46950;-79
2022/12/15 12:34:51;;;;;;;;;37.75;31.25;;;;;5.23;85.77;100329.59;5056930;28;46392;-77
2022/12/15 12:37:24;;;;;;;;;34.50;27.50;;;;;5.21;85.28;100326.94;5074270;28;45513;-76
2022/12/15 12:39:51;;;;;;;;;48.25;34.00;;;;;5.16;85.39;100312.84;5031054;28;45564;-75
2022/12/15 12:42:26;;;;;;;;;39.50;31.00;;;;;5.18;85.47;100324.25;5049758;28;45843;-74
2022/12/15 12:44:51;;;;;;;;;33.50;30.00;;;;;5.15;85.08;100318.94;5047970;27;45470;-75
2022/12/15 12:47:20;;;;;;;;;34.75;28.25;;;;;5.13;85.09;100318.03;5082910;27;45522;-75
2022/12/15 12:49:57;;;;;;;;;43.50;28.50;;;;;5.09;84.64;100310.06;5047614;28;45583;-76
2022/12/15 12:52:29;;;;;;;;;37.50;27.00;;;;;5.08;85.21;100303.06;5047014;28;48054;-79
2022/12/15 12:55:03;;;;;;;;;27.50;22.50;;;;;5.12;85.13;100307.53;5070879;28;45525;-77
2022/12/15 12:57:32;;;;;;;;;30.50;27.25;;;;;5.15;85.86;100299.72;5069272;28;45492;-76
2022/12/15 13:00:00;;;;;;;;;37.00;28.50;;;;;5.16;85.72;100309.34;5053472;28;45597;-77
2022/12/15 13:02:26;;;;;;;;;48.00;32.25;;;;;5.14;85.44;100304.09;5082800;27;48468;-79
2022/12/15 13:05:03;;;;;;;;;46.25;34.25;;;;;5.10;84.94;100304.84;5053870;28;46307;-76
2022/12/15 13:07:33;;;;;;;;;40.00;25.50;;;;;5.06;85.27;100313.50;5053054;28;45472;-77
2022/12/15 13:10:08;;;;;;;;;39.25;29.75;;;;;5.03;85.22;100305.56;5056065;28;45417;-78
2022/12/15 13:12:53;;;;;;;;;39.50;29.75;;;;;5.02;85.05;100302.91;5071445;28;46160;-76
2022/12/15 13:15:28;;;;;;;;;31.50;26.25;;;;;5.02;85.66;100310.75;5054054;28;45599;-78
2022/12/15 13:17:57;;;;;;;;;34.50;30.25;;;;;4.99;85.56;100301.97;5071396;28;45697;-76
2022/12/15 13:20:28;;;;;;;;;35.25;30.00;;;;;4.97;85.61;100300.19;5070229;28;45643;-77
2022/12/15 13:22:55;;;;;;;;;35.50;27.25;;;;;5.00;85.83;100306.34;5085249;27;47121;-76
2022/12/15 13:25:26;;;;;;;;;37.25;28.50;;;;;5.01;86.00;100312.50;5053661;28;45462;-75
2022/12/15 13:28:02;;;;;;;;;34.25;26.50;;;;;5.00;85.67;100321.16;5071739;28;45498;-76
2022/12/15 13:30:27;;;;;;;;;41.00;33.25;;;;;5.00;85.59;100319.44;5070505;28;45427;-76
2022/12/15 13:32:54;;;;;;;;;37.50;25.00;;;;;4.97;85.37;100302.78;5033170;28;62973;-75
2022/12/15 13:35:24;;;;;;;;;32.50;30.00;;;;;5.00;85.36;100318.53;5052386;28;45817;-77
2022/12/15 13:38:03;;;;;;;;;25.00;22.50;;;;;5.00;85.49;100302.84;5051616;28;45654;-75
2022/12/15 13:40:34;;;;;;;;;28.25;21.50;;;;;5.01;85.45;100302.03;5049365;28;45620;-75
2022/12/15 13:43:02;;;;;;;;;29.25;26.25;;;;;5.01;85.21;100294.19;5066422;27;45550;-74
2022/12/15 13:45:39;;;;;;;;;38.50;30.00;;;;;4.97;85.18;100282.75;5076839;27;45418;-74
2022/12/15 13:48:11;;;;;;;;;31.50;27.75;;;;;4.97;85.18;100292.31;5065148;27;45764;-74